Sunday, October 22, 2017, 8:46 PM EDT
Back to Local

KSNC, Chester, Chester Airport

Location: Chester, CT, United States Lat: 41.384
Local Time: 8:46 PM EDT ( 0:46 GMT) Lon: -72.506
Time Zone: US/Eastern Elev: 416 ft

Show me the last for .
Show Decoded

2017-10-22 20:35 METAR KSNC 230035Z AUTO 19004KT 10SM CLR 16/13 A3039 RMK AO2 =
2017-10-22 20:15 METAR KSNC 230015Z AUTO 19005KT 10SM CLR 16/13 A3039 RMK AO2 =
2017-10-22 19:55 METAR KSNC 222355Z AUTO 18005KT 10SM CLR 15/13 A3039 RMK AO2 =
2017-10-22 19:35 METAR KSNC 222335Z AUTO 00000KT 10SM CLR 15/13 A3039 RMK AO2 =
2017-10-22 19:15 METAR KSNC 222315Z AUTO 00000KT 10SM CLR 16/12 A3039 RMK AO2 =
2017-10-22 18:55 METAR KSNC 222255Z AUTO VRB03KT 10SM CLR 17/12 A3038 RMK AO2 =
2017-10-22 18:35 METAR KSNC 222235Z AUTO 18004KT 10SM CLR 17/12 A3038 RMK AO2 =
2017-10-22 17:55 METAR KSNC 222155Z AUTO 14003KT 10SM CLR 19/12 A3038 RMK AO2 =
2017-10-22 17:35 METAR KSNC 222135Z AUTO 00000KT 10SM CLR 20/11 A3038 RMK AO2 =
2017-10-22 17:15 METAR KSNC 222115Z AUTO 18004KT 10SM CLR 22/10 A3038 RMK AO2 =
2017-10-22 16:55 METAR KSNC 222055Z AUTO VRB03KT 10SM CLR 23/10 A3038 RMK AO2 =
2017-10-22 16:35 METAR KSNC 222035Z AUTO VRB05KT 10SM CLR 23/09 A3038 RMK AO2 =
2017-10-22 16:15 METAR KSNC 222015Z AUTO 20005KT 10SM CLR 23/09 A3038 RMK AO2 =
2017-10-22 15:55 METAR KSNC 221955Z AUTO 18007KT 10SM CLR 24/08 A3038 RMK AO2 =
2017-10-22 15:15 METAR KSNC 221915Z AUTO VRB05G11KT 10SM CLR 25/07 A3038 RMK AO2 =
2017-10-22 14:55 METAR KSNC 221855Z AUTO 20006KT 10SM CLR 24/03 A3038 RMK AO2 =
2017-10-22 14:35 METAR KSNC 221835Z AUTO 20007KT 10SM CLR 25/05 A3038 RMK AO2 =
2017-10-22 14:15 METAR KSNC 221815Z AUTO 19008KT 10SM CLR 25/05 A3038 RMK AO2 =
2017-10-22 13:55 METAR KSNC 221755Z AUTO 20007KT 10SM CLR 26/05 A3038 RMK AO2 =
2017-10-22 13:35 METAR KSNC 221735Z AUTO 19006KT 10SM CLR 25/05 A3039 RMK AO2 =
2017-10-22 13:15 METAR KSNC 221715Z AUTO VRB05KT 10SM CLR 25/05 A3039 RMK AO2 =
2017-10-22 12:55 METAR KSNC 221655Z AUTO 18008KT 10SM CLR 25/06 A3040 RMK AO2 =
2017-10-22 12:35 METAR KSNC 221635Z AUTO VRB03KT 10SM CLR 25/05 A3040 RMK AO2 =
2017-10-22 12:15 METAR KSNC 221615Z AUTO 24005KT 10SM CLR 24/03 A3040 RMK AO2 =
2017-10-22 11:55 METAR KSNC 221555Z AUTO 22004KT 10SM CLR 24/06 A3041 RMK AO2 =
2017-10-22 11:15 METAR KSNC 221515Z AUTO 00000KT 10SM CLR 22/10 A3041 RMK AO2 =
2017-10-22 10:55 METAR KSNC 221455Z AUTO 00000KT 10SM CLR 22/10 A3042 RMK AO2 =
2017-10-22 10:35 METAR KSNC 221435Z AUTO 00000KT 10SM CLR 23/09 A3042 RMK AO2 =
2017-10-22 10:15 METAR KSNC 221415Z AUTO 00000KT 10SM CLR 22/09 A3042 RMK AO2 =
2017-10-22 09:55 METAR KSNC 221355Z AUTO 00000KT 10SM CLR 21/09 A3042 RMK AO2 =
2017-10-22 09:35 METAR KSNC 221335Z AUTO 10SM CLR 20/10 A3043 RMK AO2 =
2017-10-22 09:15 METAR KSNC 221315Z AUTO 00000KT 10SM CLR 18/10 A3042 RMK AO2 =
2017-10-22 08:55 METAR KSNC 221255Z AUTO 00000KT 10SM CLR 16/09 A3042 RMK AO2 =
2017-10-22 08:35 METAR KSNC 221235Z AUTO 00000KT 10SM CLR 13/09 A3042 RMK AO2 =
2017-10-22 08:15 METAR KSNC 221215Z AUTO 00000KT 10SM CLR 12/08 A3041 RMK AO2 =
2017-10-22 07:55 METAR KSNC 221155Z AUTO 00000KT 10SM CLR 11/08 A3040 RMK AO2 =
2017-10-22 07:35 METAR KSNC 221135Z AUTO 00000KT 10SM CLR 11/07 A3039 RMK AO2 =
2017-10-22 06:35 METAR KSNC 221035Z AUTO 00000KT 10SM CLR 12/07 A3038 RMK AO2 =
2017-10-22 06:15 METAR KSNC 221015Z AUTO 00000KT 10SM CLR 11/08 A3038 RMK AO2 =
2017-10-22 05:55 METAR KSNC 220955Z AUTO 00000KT 10SM CLR 12/07 A3037 RMK AO2 =
2017-10-22 05:35 METAR KSNC 220935Z AUTO 00000KT 10SM CLR 14/06 A3037 RMK AO2 =
2017-10-22 05:15 METAR KSNC 220915Z AUTO 00000KT 10SM CLR 13/06 A3036 RMK AO2 =
2017-10-22 04:55 METAR KSNC 220855Z AUTO 00000KT 10SM CLR 13/06 A3036 RMK AO2 =
2017-10-22 04:35 METAR KSNC 220835Z AUTO 00000KT 10SM CLR 12/07 A3036 RMK AO2 =
2017-10-22 04:15 METAR KSNC 220815Z AUTO 00000KT 10SM CLR 12/08 A3035 RMK AO2 =
2017-10-22 03:55 METAR KSNC 220755Z AUTO 31003KT 10SM CLR 11/08 A3035 RMK AO2 =
2017-10-22 03:35 METAR KSNC 220735Z AUTO 00000KT 10SM CLR 12/08 A3035 RMK AO2 =
2017-10-22 03:15 METAR KSNC 220715Z AUTO 00000KT 10SM CLR 13/08 A3035 RMK AO2 =
2017-10-22 02:55 METAR KSNC 220655Z AUTO VRB03KT 10SM CLR 14/07 A3035 RMK AO2 =
2017-10-22 02:35 METAR KSNC 220635Z AUTO 26004KT 10SM CLR 14/08 A3035 RMK AO2 =
2017-10-22 02:15 METAR KSNC 220615Z AUTO 00000KT 10SM CLR 15/08 A3035 RMK AO2 =
2017-10-22 01:55 METAR KSNC 220555Z AUTO 25005KT 10SM CLR 15/09 A3035 RMK AO2 =
2017-10-22 01:35 METAR KSNC 220535Z AUTO 25005KT 10SM CLR 15/09 A3036 RMK AO2 =
2017-10-22 01:15 METAR KSNC 220515Z AUTO 26005KT 10SM CLR 15/09 A3036 RMK AO2 =
2017-10-22 00:55 METAR KSNC 220455Z AUTO 26004KT 10SM CLR 15/09 A3036 RMK AO2 =
2017-10-22 00:35 METAR KSNC 220435Z AUTO 25004KT 10SM CLR 15/09 A3035 RMK AO2 =
2017-10-22 00:15 METAR KSNC 220415Z AUTO VRB04KT 10SM CLR 15/09 A3035 RMK AO2 =
2017-10-21 23:55 METAR KSNC 220355Z AUTO 25006KT 10SM CLR 16/09 A3035 RMK AO2 =
2017-10-21 23:35 METAR KSNC 220335Z AUTO 25006KT 10SM CLR 16/09 A3035 RMK AO2 =
2017-10-21 23:15 METAR KSNC 220315Z AUTO VRB06KT 10SM CLR 16/10 A3035 RMK AO2 =
2017-10-21 22:55 METAR KSNC 220255Z AUTO 25005KT 10SM CLR 16/10 A3035 RMK AO2 =
2017-10-21 22:35 METAR KSNC 220235Z AUTO 24005KT 10SM CLR 16/10 A3035 RMK AO2 =
2017-10-21 22:15 METAR KSNC 220215Z AUTO 24005KT 10SM CLR 16/10 A3035 RMK AO2 =
2017-10-21 21:55 METAR KSNC 220155Z AUTO 24005KT 10SM CLR 16/10 A3035 RMK AO2 =
2017-10-21 21:35 METAR KSNC 220135Z AUTO 24006KT 10SM CLR 16/10 A3035 RMK AO2 =
2017-10-21 21:15 METAR KSNC 220115Z AUTO 24005KT 10SM CLR 16/09 A3035 RMK AO2 =
2017-10-21 20:55 METAR KSNC 220055Z AUTO 24006KT 10SM CLR 16/10 A3035 RMK AO2 =

Support USWX by starting your Amazon purchase here.